Terminal Aerodrome Forecast
Issued by NWS

Home | Current Version | Previous Version | Text Only | Print | Product List | Glossary On
Versions: 1 2 3 4 5 6 7 8 9 10 11 12 13
795
FTUS46 KMTR 251736
TAFOAK
TAF
KOAK 251736Z 2518/2624 22014G20KT P6SM FEW016 BKN026
     FM252000 26015KT P6SM FEW015 FEW025
     FM260300 27013KT P6SM SCT020
     FM260600 25011KT P6SM BKN015
     FM260800 23009KT P6SM OVC013
     FM261730 22008KT P6SM SCT019 BKN027
     FM262000 26015KT P6SM FEW015 FEW025=

USA.gov is the U.S. government's official web portal to all federal, state and local government web resources and services.